createdAt,value
2018-07-24T00:01:38.213Z,73.70
2018-07-24T00:04:06.553Z,73.90
2018-07-24T00:06:34.909Z,73.70
2018-07-24T00:09:05.164Z,73.60
2018-07-24T00:11:33.682Z,73.60
2018-07-24T00:14:02.075Z,73.70
2018-07-24T00:18:58.713Z,73.60
2018-07-24T00:21:27.131Z,74.30
2018-07-24T00:23:55.537Z,73.50
2018-07-24T00:26:23.841Z,74.80
2018-07-24T00:28:52.221Z,74.40
2018-07-24T00:31:20.529Z,74.90
2018-07-24T00:33:48.863Z,74.90
2018-07-24T00:36:17.264Z,75.30
2018-07-24T00:38:45.780Z,75.20
2018-07-24T00:41:14.129Z,75.50
2018-07-24T00:43:42.452Z,75.10
2018-07-24T00:46:10.773Z,75.60
2018-07-24T00:48:39.102Z,75.60
2018-07-24T00:51:07.542Z,76.30
2018-07-24T00:53:35.845Z,76.00
2018-07-24T00:56:11.046Z,76.10
2018-07-24T01:01:07.600Z,76.20
2018-07-24T01:03:35.968Z,76.60
2018-07-24T01:06:04.453Z,76.00
2018-07-24T01:08:32.912Z,75.50
2018-07-24T01:11:01.371Z,75.40
2018-07-24T01:13:29.793Z,75.40
2018-07-24T01:15:58.073Z,75.50
2018-07-24T01:18:26.404Z,75.60
2018-07-24T01:20:54.785Z,75.30
2018-07-24T01:23:23.129Z,75.50
2018-07-24T01:25:52.080Z,76.00
2018-07-24T01:28:20.394Z,76.40
2018-07-24T01:30:48.754Z,77.10
2018-07-24T01:33:17.082Z,76.90
2018-07-24T01:35:45.469Z,77.10
2018-07-24T01:38:13.806Z,77.00
2018-07-24T01:40:42.150Z,77.20
2018-07-24T01:43:10.556Z,77.40
2018-07-24T01:45:38.920Z,78.10
2018-07-24T01:48:07.284Z,78.10
2018-07-24T01:50:36.278Z,77.70
2018-07-24T01:53:04.806Z,76.90
2018-07-24T01:55:33.171Z,77.30
2018-07-24T01:58:01.559Z,77.60
2018-07-24T02:00:29.913Z,77.60
2018-07-24T02:02:58.344Z,78.10
2018-07-24T02:05:26.681Z,78.10
2018-07-24T02:07:55.029Z,77.40
2018-07-24T02:10:23.378Z,77.10
2018-07-24T02:12:51.936Z,77.40
2018-07-24T02:15:20.248Z,77.20
2018-07-24T02:17:48.629Z,77.10
2018-07-24T02:22:50.877Z,76.70
2018-07-24T02:25:19.274Z,77.20
2018-07-24T02:27:47.588Z,77.30
2018-07-24T02:30:15.922Z,77.00
2018-07-24T02:32:44.264Z,77.50
2018-07-24T02:35:12.696Z,77.20
2018-07-24T02:37:41.029Z,77.30
2018-07-24T02:40:09.391Z,77.90
2018-07-24T02:42:37.681Z,77.10
2018-07-24T02:45:07.373Z,77.10
2018-07-24T02:47:35.723Z,77.70
2018-07-24T02:50:04.392Z,77.20
2018-07-24T02:52:32.834Z,77.00
2018-07-24T02:55:01.249Z,77.20
2018-07-24T02:57:29.722Z,76.50
2018-07-24T02:59:58.061Z,77.20
2018-07-24T03:02:26.395Z,76.70
2018-07-24T03:04:54.733Z,77.50
2018-07-24T03:07:23.066Z,78.50
2018-07-24T03:09:51.369Z,78.50
2018-07-24T03:12:19.657Z,78.70
2018-07-24T03:14:47.983Z,78.70
2018-07-24T03:17:16.314Z,78.60
2018-07-24T03:19:44.637Z,78.80
2018-07-24T03:22:12.946Z,79.60
2018-07-24T03:24:41.229Z,79.70
2018-07-24T03:27:09.510Z,79.80
2018-07-24T03:29:37.800Z,79.60
2018-07-24T03:32:06.176Z,80.10
2018-07-24T03:34:34.528Z,79.70
2018-07-24T03:37:02.895Z,79.60
2018-07-24T03:39:31.209Z,79.20
2018-07-24T03:44:27.736Z,78.50
2018-07-24T03:46:56.077Z,78.70
2018-07-24T03:49:24.412Z,79.70
2018-07-24T03:51:52.716Z,79.70
2018-07-24T03:54:21.046Z,79.60
2018-07-24T03:56:49.365Z,79.30
2018-07-24T03:59:17.721Z,79.70
2018-07-24T04:01:46.060Z,79.70
2018-07-24T04:04:14.357Z,79.60
2018-07-24T04:06:42.687Z,79.60
2018-07-24T04:09:11.410Z,79.80
2018-07-24T04:11:40.325Z,80.50
2018-07-24T04:14:08.636Z,80.00
2018-07-24T04:16:36.935Z,80.20
2018-07-24T04:19:05.298Z,80.20
2018-07-24T04:21:33.633Z,80.80
2018-07-24T04:24:01.913Z,80.20
2018-07-24T04:26:30.266Z,80.40
2018-07-24T04:29:05.557Z,80.20
2018-07-24T04:31:33.837Z,79.70
2018-07-24T04:34:01.529Z,80.20
2018-07-24T04:36:29.948Z,79.80
2018-07-24T04:38:58.286Z,80.30
2018-07-24T04:41:26.621Z,80.70
2018-07-24T04:43:54.938Z,81.50
2018-07-24T04:46:23.272Z,81.10
2018-07-24T04:48:51.589Z,80.60
2018-07-24T04:51:19.905Z,80.10
2018-07-24T04:53:48.218Z,79.30
2018-07-24T04:56:16.572Z,79.00
2018-07-24T04:58:44.853Z,79.30
2018-07-24T05:01:13.254Z,79.60
2018-07-24T05:03:41.654Z,80.30
2018-07-24T05:06:10.010Z,80.10
2018-07-24T05:08:38.350Z,80.10
2018-07-24T05:11:06.842Z,80.70
2018-07-24T05:13:35.147Z,78.90
2018-07-24T05:16:03.554Z,78.70
2018-07-24T05:21:00.183Z,78.40
2018-07-24T05:23:29.530Z,78.50
2018-07-24T05:28:26.161Z,78.90
2018-07-24T05:33:22.797Z,79.30
2018-07-24T05:35:51.217Z,79.30
2018-07-24T05:38:19.581Z,79.40
2018-07-24T05:40:48.064Z,78.50
2018-07-24T05:43:16.387Z,78.20
2018-07-24T05:45:44.810Z,78.00
2018-07-24T05:48:13.173Z,77.70
2018-07-24T05:53:10.128Z,77.20
2018-07-24T05:55:38.518Z,76.60
2018-07-24T06:00:35.255Z,75.20
2018-07-24T06:03:03.606Z,75.10
2018-07-24T06:05:31.948Z,73.90
2018-07-24T06:08:00.282Z,73.80
2018-07-24T06:10:28.623Z,73.90
2018-07-24T06:12:57.028Z,74.00
2018-07-24T06:15:25.352Z,74.00
2018-07-24T06:17:53.759Z,73.80
2018-07-24T06:20:22.111Z,72.70
2018-07-24T06:22:50.433Z,72.10
2018-07-24T06:25:18.817Z,72.40
2018-07-24T06:27:47.161Z,71.20
2018-07-24T06:30:15.498Z,71.70
2018-07-24T06:35:12.093Z,71.30
2018-07-24T06:37:40.538Z,70.90
2018-07-24T06:40:08.868Z,71.20
2018-07-24T06:42:37.168Z,71.00
2018-07-24T06:45:05.561Z,71.00
2018-07-24T06:50:02.068Z,71.60
2018-07-24T06:52:30.434Z,71.10
2018-07-24T06:54:58.782Z,70.20
2018-07-24T06:57:27.101Z,69.90
2018-07-24T06:59:55.436Z,69.60
2018-07-24T07:02:23.811Z,69.50
2018-07-24T07:04:52.113Z,69.70
2018-07-24T07:07:20.497Z,69.70
2018-07-24T07:09:48.807Z,69.90
2018-07-24T07:12:17.235Z,69.60
2018-07-24T07:14:45.624Z,69.50
2018-07-24T07:17:14.016Z,69.10
2018-07-24T07:19:42.336Z,68.30
2018-07-24T07:24:38.890Z,68.40
2018-07-24T07:27:08.331Z,68.10
2018-07-24T07:29:36.690Z,68.10
2018-07-24T07:32:05.292Z,67.30
2018-07-24T07:34:34.477Z,66.70
2018-07-24T07:37:02.863Z,66.10
2018-07-24T07:39:31.254Z,66.00
2018-07-24T07:41:59.589Z,66.00
2018-07-24T07:44:27.926Z,64.80
2018-07-24T07:46:56.278Z,64.30
2018-07-24T07:49:24.577Z,64.80
2018-07-24T07:51:53.094Z,63.70
2018-07-24T07:54:21.477Z,62.90
2018-07-24T07:56:49.909Z,62.40
2018-07-24T07:59:18.269Z,61.90
2018-07-24T08:01:46.658Z,61.10
2018-07-24T08:04:15.054Z,60.70
2018-07-24T08:06:43.393Z,60.40
2018-07-24T08:09:12.313Z,60.40
2018-07-24T08:11:42.066Z,59.20
2018-07-24T08:14:10.524Z,58.00
2018-07-24T08:16:38.802Z,57.70
2018-07-24T08:19:07.139Z,57.50
2018-07-24T08:21:35.517Z,56.90
2018-07-24T08:24:03.931Z,57.00
2018-07-24T08:26:32.292Z,55.90
2018-07-24T08:29:00.699Z,55.70
2018-07-24T08:31:29.241Z,56.20
2018-07-24T08:33:57.596Z,55.10
2018-07-24T08:36:25.993Z,53.20
2018-07-24T08:38:54.417Z,52.20
2018-07-24T08:41:22.854Z,52.40
2018-07-24T08:43:51.254Z,53.30
2018-07-24T08:46:19.751Z,51.90
2018-07-24T08:48:48.095Z,52.20
2018-07-24T08:51:16.493Z,50.90
2018-07-24T08:53:45.480Z,49.50
2018-07-24T08:56:13.439Z,50.70
2018-07-24T08:58:41.807Z,50.60
2018-07-24T09:01:10.159Z,49.60
2018-07-24T09:03:38.550Z,49.60
2018-07-24T09:06:06.935Z,50.10
2018-07-24T09:08:35.334Z,52.00
2018-07-24T09:13:31.925Z,48.30
2018-07-24T09:16:00.258Z,49.30
2018-07-24T09:20:56.904Z,48.30
2018-07-24T09:23:25.767Z,46.60
2018-07-24T09:25:54.122Z,47.10
2018-07-24T09:28:22.455Z,46.70
2018-07-24T09:33:19.032Z,45.00
2018-07-24T09:35:47.374Z,45.60
2018-07-24T09:38:15.705Z,46.40
2018-07-24T09:40:44.169Z,46.00
2018-07-24T09:43:12.485Z,46.70
2018-07-24T09:48:09.162Z,44.90
2018-07-24T09:53:05.822Z,45.70
2018-07-24T09:55:35.010Z,45.70
2018-07-24T09:58:03.384Z,45.30
2018-07-24T10:00:37.250Z,45.20
2018-07-24T10:03:05.747Z,44.40
2018-07-24T10:05:34.119Z,45.30
2018-07-24T10:08:02.529Z,45.50
2018-07-24T10:12:59.247Z,44.70
2018-07-24T10:15:27.455Z,45.40
2018-07-24T10:17:55.812Z,45.60
2018-07-24T10:20:24.173Z,44.30
2018-07-24T10:22:52.586Z,45.00
2018-07-24T10:25:20.942Z,45.80
2018-07-24T10:27:49.260Z,45.20
2018-07-24T10:30:17.643Z,44.50
2018-07-24T10:32:45.996Z,45.10
2018-07-24T10:35:14.366Z,44.60
2018-07-24T10:37:42.740Z,43.90
2018-07-24T10:42:39.529Z,43.30
2018-07-24T10:45:07.977Z,43.30
2018-07-24T10:50:04.780Z,42.40
2018-07-24T10:52:33.150Z,42.50
2018-07-24T10:55:01.581Z,42.00
2018-07-24T10:59:58.753Z,43.70
2018-07-24T11:04:55.754Z,41.80
2018-07-24T11:07:24.179Z,41.20
2018-07-24T11:09:52.690Z,40.90
2018-07-24T11:14:49.474Z,39.40
2018-07-24T11:17:18.198Z,39.70
2018-07-24T11:19:46.597Z,40.30
2018-07-24T11:24:43.285Z,40.40
2018-07-24T11:27:11.659Z,41.50
2018-07-24T11:29:40.085Z,41.20
2018-07-24T11:32:08.978Z,41.40
2018-07-24T11:34:37.369Z,40.90
2018-07-24T11:37:05.759Z,41.60
2018-07-24T11:39:34.111Z,41.90
2018-07-24T11:42:02.476Z,40.80
2018-07-24T11:44:30.827Z,40.10
2018-07-24T11:46:59.206Z,40.80
2018-07-24T11:49:27.664Z,40.80
2018-07-24T11:51:56.105Z,40.30
2018-07-24T11:54:24.448Z,41.50
2018-07-24T11:56:53.480Z,40.60
2018-07-24T12:01:50.166Z,41.10
2018-07-24T12:04:18.542Z,41.50
2018-07-24T12:06:46.918Z,39.60
2018-07-24T12:11:43.637Z,40.40
2018-07-24T12:14:11.950Z,40.60
2018-07-24T12:16:40.349Z,40.60
2018-07-24T12:19:08.677Z,40.70
2018-07-24T12:21:37.111Z,41.30
2018-07-24T12:24:05.606Z,40.60
2018-07-24T12:26:33.973Z,40.00
2018-07-24T12:29:02.363Z,40.50
2018-07-24T12:31:30.730Z,39.30
2018-07-24T12:33:59.138Z,40.10
2018-07-24T12:38:55.792Z,40.00
2018-07-24T12:41:24.160Z,39.90
2018-07-24T12:43:52.486Z,39.10
2018-07-24T12:46:20.796Z,39.20
2018-07-24T12:48:49.185Z,39.20
2018-07-24T12:51:17.541Z,38.70
2018-07-24T12:53:46.036Z,39.30
2018-07-24T12:56:14.381Z,39.60
2018-07-24T12:58:42.814Z,39.10
2018-07-24T13:01:11.196Z,39.30
2018-07-24T13:03:39.885Z,38.10
2018-07-24T13:06:08.430Z,37.40
2018-07-24T13:08:36.787Z,38.20
2018-07-24T13:11:05.332Z,37.70
2018-07-24T13:13:33.554Z,37.10
2018-07-24T13:16:01.874Z,36.50
2018-07-24T13:18:30.266Z,36.90
2018-07-24T13:20:58.671Z,36.00
2018-07-24T13:23:27.001Z,35.80
2018-07-24T13:25:55.377Z,35.60
2018-07-24T13:28:23.727Z,35.40
2018-07-24T13:30:52.109Z,35.40
2018-07-24T13:33:20.476Z,36.30
2018-07-24T13:35:48.923Z,35.50
2018-07-24T13:38:17.259Z,35.80
2018-07-24T13:40:45.675Z,36.40
2018-07-24T13:43:14.059Z,36.50
2018-07-24T13:45:42.433Z,34.80
2018-07-24T13:48:10.785Z,34.30
2018-07-24T13:53:07.352Z,33.70
2018-07-24T13:55:35.716Z,33.90
2018-07-24T13:58:04.175Z,34.50
2018-07-24T14:00:32.533Z,34.90
2018-07-24T14:03:00.894Z,34.80
2018-07-24T14:05:29.318Z,35.50
2018-07-24T14:07:57.619Z,34.80
2018-07-24T14:10:26.037Z,36.00
2018-07-24T14:12:54.446Z,34.70
2018-07-24T14:15:22.825Z,35.50
2018-07-24T14:17:51.166Z,34.70
2018-07-24T14:20:19.581Z,34.00
2018-07-24T14:22:47.933Z,34.30
2018-07-24T14:25:16.322Z,34.70
2018-07-24T14:27:44.693Z,32.70
2018-07-24T14:30:13.012Z,32.80
2018-07-24T14:32:41.326Z,33.40
2018-07-24T14:35:09.709Z,30.20
2018-07-24T14:37:38.114Z,29.40
2018-07-24T14:40:06.585Z,30.20
2018-07-24T14:42:34.957Z,30.00
2018-07-24T14:45:03.487Z,30.80
2018-07-24T14:47:31.912Z,31.40
2018-07-24T14:50:00.305Z,30.50
2018-07-24T14:54:56.928Z,31.00
2018-07-24T14:57:25.361Z,30.50
2018-07-24T14:59:53.672Z,29.30
2018-07-24T15:02:22.049Z,28.90
2018-07-24T15:04:50.513Z,29.20
2018-07-24T15:07:18.816Z,29.20
2018-07-24T15:09:47.215Z,28.90
2018-07-24T15:12:15.687Z,28.20
2018-07-24T15:17:12.408Z,27.50
2018-07-24T15:19:40.801Z,28.40
2018-07-24T15:22:09.291Z,29.00
2018-07-24T15:24:37.650Z,29.30
2018-07-24T15:27:06.061Z,30.30
2018-07-24T15:32:02.656Z,30.70
2018-07-24T15:34:31.230Z,30.20
2018-07-24T15:36:59.533Z,30.80
2018-07-24T15:39:27.869Z,30.90
2018-07-24T15:41:56.218Z,31.10
2018-07-24T15:44:24.584Z,30.10
2018-07-24T15:46:53.052Z,31.70
2018-07-24T15:49:21.457Z,31.00
2018-07-24T15:51:49.824Z,30.20
2018-07-24T15:54:18.252Z,31.80
2018-07-24T15:56:46.716Z,31.60
2018-07-24T15:59:15.097Z,31.30
2018-07-24T16:01:43.701Z,31.00
2018-07-24T16:04:12.347Z,30.40
2018-07-24T16:06:40.826Z,28.90
2018-07-24T16:09:11.413Z,29.60
2018-07-24T16:11:39.912Z,29.50
2018-07-24T16:14:08.621Z,28.80
2018-07-24T16:16:36.990Z,29.70
2018-07-24T16:19:05.534Z,29.00
2018-07-24T16:21:34.156Z,28.70
2018-07-24T16:26:30.905Z,28.40
2018-07-24T16:28:59.205Z,29.00
2018-07-24T16:31:27.522Z,29.30
2018-07-24T16:33:55.879Z,29.30
2018-07-24T16:36:24.263Z,29.20
2018-07-24T16:38:52.668Z,28.70
2018-07-24T16:41:21.212Z,29.20
2018-07-24T16:43:49.636Z,29.00
2018-07-24T16:46:17.989Z,29.50
2018-07-24T16:48:46.446Z,29.20
2018-07-24T16:51:14.836Z,30.60
2018-07-24T16:53:43.272Z,30.00
2018-07-24T16:56:11.686Z,30.00
2018-07-24T17:01:08.391Z,30.70
2018-07-24T17:06:05.001Z,30.20
2018-07-24T17:08:33.360Z,30.00
2018-07-24T17:11:01.715Z,30.80
2018-07-24T17:13:30.271Z,30.50
2018-07-24T17:15:58.673Z,30.90
2018-07-24T17:18:27.061Z,32.00
2018-07-24T17:20:55.485Z,30.50
2018-07-24T17:23:23.838Z,30.80
2018-07-24T17:25:52.208Z,31.40
2018-07-24T17:28:20.584Z,31.90
2018-07-24T17:30:48.991Z,32.30
2018-07-24T17:33:17.330Z,31.80
2018-07-24T17:35:46.094Z,31.20
2018-07-24T17:38:14.521Z,31.70
2018-07-24T17:40:42.994Z,31.40
2018-07-24T17:43:11.318Z,31.20
2018-07-24T17:48:08.333Z,31.60
2018-07-24T17:50:36.850Z,31.80
2018-07-24T17:53:05.251Z,31.70
2018-07-24T17:55:33.664Z,32.10
2018-07-24T17:58:02.093Z,32.50
2018-07-24T18:00:30.520Z,32.40
2018-07-24T18:02:58.919Z,32.40
2018-07-24T18:05:27.336Z,32.90
2018-07-24T18:07:55.732Z,32.40
2018-07-24T18:10:24.242Z,33.40
2018-07-24T18:12:52.789Z,32.80
2018-07-24T18:15:21.251Z,32.70
2018-07-24T18:17:49.629Z,32.40
2018-07-24T18:20:18.001Z,33.50
2018-07-24T18:22:46.441Z,33.70
2018-07-24T18:25:14.842Z,33.70
2018-07-24T18:27:43.333Z,34.10
2018-07-24T18:30:11.732Z,33.90
2018-07-24T18:32:40.105Z,33.80
2018-07-24T18:35:08.540Z,34.10
2018-07-24T18:37:36.944Z,34.20
2018-07-24T18:40:05.399Z,34.50
2018-07-24T18:42:33.774Z,35.20
2018-07-24T18:45:02.152Z,35.10
2018-07-24T18:47:30.629Z,37.80
2018-07-24T18:49:59.121Z,39.70
2018-07-24T18:52:27.665Z,37.80
2018-07-24T18:54:56.123Z,40.20
2018-07-24T18:57:24.541Z,40.50
2018-07-24T18:59:52.967Z,39.30
2018-07-24T19:02:21.378Z,39.60
2018-07-24T19:04:49.809Z,39.90
2018-07-24T19:09:46.598Z,40.30
2018-07-24T19:12:15.114Z,40.90
2018-07-24T19:14:43.606Z,41.30
2018-07-24T19:17:12.396Z,42.00
2018-07-24T19:19:40.745Z,41.50
2018-07-24T19:22:09.157Z,41.70
2018-07-24T19:24:37.610Z,42.00
2018-07-24T19:27:06.165Z,42.90
2018-07-24T19:29:35.235Z,42.90
2018-07-24T19:32:03.665Z,44.00
2018-07-24T19:34:32.111Z,43.80
2018-07-24T19:37:00.594Z,44.30
2018-07-24T19:39:29.020Z,44.30
2018-07-24T19:41:57.552Z,44.40
2018-07-24T19:44:25.967Z,44.30
2018-07-24T19:46:54.396Z,44.80
2018-07-24T19:49:25.816Z,45.30
2018-07-24T19:51:54.284Z,46.20
2018-07-24T19:54:22.895Z,45.60
2018-07-24T19:56:58.062Z,46.10
2018-07-24T19:59:26.498Z,46.60
2018-07-24T20:01:54.968Z,47.00
2018-07-24T20:04:23.334Z,47.80
2018-07-24T20:06:51.778Z,48.00
2018-07-24T20:09:21.080Z,49.80
2018-07-24T20:11:49.534Z,49.10
2018-07-24T20:14:18.681Z,49.10
2018-07-24T20:16:47.116Z,49.10
2018-07-24T20:19:15.602Z,49.00
2018-07-24T20:21:44.086Z,49.50
2018-07-24T20:24:12.537Z,50.10
2018-07-24T20:26:40.988Z,49.80
2018-07-24T20:29:09.447Z,50.30
2018-07-24T20:31:37.918Z,50.50
2018-07-24T20:34:06.689Z,50.70
2018-07-24T20:36:35.111Z,50.50
2018-07-24T20:39:06.080Z,51.10
2018-07-24T20:41:34.569Z,51.50
2018-07-24T20:44:03.148Z,52.20
2018-07-24T20:46:31.746Z,52.10
2018-07-24T20:49:00.158Z,52.10
2018-07-24T20:51:28.600Z,51.90
2018-07-24T20:53:57.002Z,52.10
2018-07-24T20:56:25.539Z,51.80
2018-07-24T20:58:53.885Z,52.50
2018-07-24T21:01:22.250Z,52.40
2018-07-24T21:03:51.667Z,52.80
2018-07-24T21:06:20.112Z,53.10
2018-07-24T21:08:49.294Z,53.50
2018-07-24T21:11:17.740Z,53.20
2018-07-24T21:13:46.156Z,53.50
2018-07-24T21:16:14.627Z,53.70
2018-07-24T21:18:43.170Z,53.70
2018-07-24T21:21:11.712Z,53.60
2018-07-24T21:23:40.205Z,53.80
2018-07-24T21:26:08.682Z,53.70
2018-07-24T21:28:37.098Z,53.80
2018-07-24T21:31:05.838Z,53.90
2018-07-24T21:33:34.477Z,54.20
2018-07-24T21:36:02.889Z,54.60
2018-07-24T21:38:31.288Z,54.60
2018-07-24T21:40:59.659Z,54.50
2018-07-24T21:43:28.043Z,54.90
2018-07-24T21:45:56.506Z,55.30
2018-07-24T21:48:24.860Z,55.40
2018-07-24T21:50:53.294Z,55.40
2018-07-24T21:53:21.790Z,55.40
2018-07-24T21:55:50.213Z,56.00
2018-07-24T21:58:18.736Z,56.20
2018-07-24T22:00:51.717Z,56.20
2018-07-24T22:03:20.082Z,55.90
2018-07-24T22:05:48.527Z,55.90
2018-07-24T22:08:16.988Z,56.50
2018-07-24T22:10:45.423Z,57.10
2018-07-24T22:13:13.824Z,57.70
2018-07-24T22:15:42.189Z,57.60
2018-07-24T22:18:10.647Z,57.80
2018-07-24T22:20:38.989Z,58.10
2018-07-24T22:23:07.362Z,57.90
2018-07-24T22:25:35.715Z,57.90
2018-07-24T22:30:32.461Z,58.30
2018-07-24T22:35:29.274Z,57.90
2018-07-24T22:37:57.690Z,57.60
2018-07-24T22:40:26.126Z,58.00
2018-07-24T22:42:54.540Z,57.90
2018-07-24T22:45:22.965Z,58.10
2018-07-24T22:47:51.479Z,58.10
2018-07-24T22:50:19.882Z,58.50
2018-07-24T22:52:48.274Z,58.70
2018-07-24T22:55:16.639Z,59.00
2018-07-24T22:57:45.034Z,59.40
2018-07-24T23:00:13.439Z,59.60
2018-07-24T23:02:41.797Z,59.60
2018-07-24T23:05:10.176Z,59.60
2018-07-24T23:07:38.550Z,59.60
2018-07-24T23:10:07.065Z,59.40
2018-07-24T23:12:35.354Z,59.50
2018-07-24T23:15:04.401Z,59.60
2018-07-24T23:17:32.873Z,59.50
2018-07-24T23:20:01.209Z,60.00
2018-07-24T23:22:29.578Z,60.10
2018-07-24T23:24:57.958Z,59.80
2018-07-24T23:27:26.393Z,60.30
2018-07-24T23:29:54.736Z,60.70
2018-07-24T23:32:23.044Z,60.60
2018-07-24T23:34:51.370Z,60.60
2018-07-24T23:37:19.760Z,60.90
2018-07-24T23:39:48.097Z,61.10
2018-07-24T23:42:16.518Z,61.50
2018-07-24T23:44:44.873Z,61.90
2018-07-24T23:47:13.419Z,62.10
2018-07-24T23:49:41.773Z,62.60
2018-07-24T23:52:10.154Z,63.00
2018-07-24T23:54:38.507Z,62.70
2018-07-24T23:57:07.645Z,62.50
2018-07-24T23:59:35.946Z,62.80
